Time;durP1;ratioP1;P1;durP2;ratioP2;P2;SDS_P1;SDS_P2;PMS_P1;PMS_P2;Temp;Humidity;BMP_temperature;BMP_pressure;BME280_temperature;BME280_humidity;BME280_pressure;Samples;Min_cycle;Max_cycle;Signal;HPM_P1;HPM_P2
2022/09/20 00:01:12;;;;;;;1.20;0.70;;;5.90;99.90;;;;;;5094665;28;20082;-79
2022/09/20 00:03:43;;;;;;;1.30;0.50;;;5.90;99.90;;;;;;5076789;28;20062;-78
2022/09/20 00:06:15;;;;;;;1.27;0.75;;;5.80;99.90;;;;;;5094436;28;20089;-78
2022/09/20 00:08:41;;;;;;;0.52;0.52;;;5.70;99.90;;;;;;5076392;28;20024;-79
2022/09/20 00:11:14;;;;;;;0.63;0.60;;;5.70;99.90;;;;;;5076424;28;20031;-79
2022/09/20 00:13:41;;;;;;;1.65;0.50;;;5.70;99.90;;;;;;5076262;28;20027;-78
2022/09/20 00:16:12;;;;;;;1.23;0.50;;;5.80;99.90;;;;;;5094600;28;20031;-80
2022/09/20 00:18:39;;;;;;;0.90;0.52;;;5.80;99.90;;;;;;5075758;28;20407;-79
2022/09/20 00:21:05;;;;;;;0.47;0.40;;;5.80;99.90;;;;;;5076050;28;20043;-79
2022/09/20 00:23:31;;;;;;;0.85;0.47;;;5.90;99.90;;;;;;5075975;28;20466;-78
2022/09/20 00:26:00;;;;;;;0.50;0.50;;;5.90;99.90;;;;;;5093960;28;20127;-80
2022/09/20 00:28:27;;;;;;;1.27;0.75;;;6.00;99.90;;;;;;5094142;28;20116;-79
2022/09/20 00:30:53;;;;;;;0.88;0.80;;;6.00;99.90;;;;;;5075807;28;20382;-79
2022/09/20 00:33:20;;;;;;;0.77;0.65;;;6.00;99.90;;;;;;5075748;28;20024;-80
2022/09/20 00:35:46;;;;;;;1.10;0.60;;;6.00;99.90;;;;;;5075689;28;20056;-78
2022/09/20 00:38:12;;;;;;;3.55;0.60;;;6.00;99.90;;;;;;5075819;28;20058;-78
2022/09/20 00:40:40;;;;;;;1.05;0.60;;;6.10;99.90;;;;;;5094165;28;20024;-81
2022/09/20 00:43:06;;;;;;;0.60;0.40;;;6.10;99.90;;;;;;5076006;28;20019;-79
2022/09/20 00:45:32;;;;;;;0.50;0.50;;;6.10;99.90;;;;;;5093861;28;20382;-80
2022/09/20 00:48:03;;;;;;;0.68;0.68;;;6.20;99.90;;;;;;5093926;28;20020;-78
2022/09/20 00:50:39;;;;;;;2.45;0.55;;;6.20;99.90;;;;;;5093806;28;20125;-78
2022/09/20 00:53:19;;;;;;;0.40;0.40;;;6.20;99.90;;;;;;5093874;28;20073;-80
2022/09/20 00:55:55;;;;;;;0.50;0.50;;;6.20;99.90;;;;;;5075583;28;20032;-79
2022/09/20 00:58:21;;;;;;;;;;;6.30;99.90;;;;;;5075827;28;20045;-79
2022/09/20 01:00:48;;;;;;;0.75;0.68;;;6.30;99.90;;;;;;5075648;28;20355;-78
2022/09/20 01:03:16;;;;;;;0.40;0.38;;;6.30;99.90;;;;;;5093349;28;20530;-79
2022/09/20 01:05:43;;;;;;;0.50;0.47;;;6.20;99.90;;;;;;5093382;28;20486;-78
2022/09/20 01:08:10;;;;;;;2.30;0.55;;;6.30;99.90;;;;;;5092875;28;20034;-79
2022/09/20 01:10:36;;;;;;;1.10;0.65;;;6.40;99.90;;;;;;5075430;28;20051;-78
2022/09/20 01:13:04;;;;;;;0.40;0.40;;;6.40;99.90;;;;;;5093227;28;20044;-80
2022/09/20 01:15:32;;;;;;;1.17;0.85;;;6.40;99.90;;;;;;5075061;28;20126;-81
2022/09/20 01:18:00;;;;;;;1.25;0.95;;;6.40;99.90;;;;;;5093123;28;20020;-79
2022/09/20 01:20:30;;;;;;;0.85;0.47;;;6.30;99.90;;;;;;5074919;28;20044;-78
2022/09/20 01:22:56;;;;;;;0.90;0.43;;;6.30;99.90;;;;;;5093329;28;20474;-78
2022/09/20 01:25:41;;;;;;;0.85;0.57;;;6.40;99.90;;;;;;5093009;28;20117;-79
2022/09/20 01:28:07;;;;;;;0.50;0.50;;;6.40;99.90;;;;;;5074800;28;20109;-79
2022/09/20 01:30:44;;;;;;;0.60;0.60;;;6.50;99.90;;;;;;5074448;28;20073;-79
2022/09/20 01:33:22;;;;;;;1.13;0.95;;;6.50;99.90;;;;;;5093007;28;20089;-79
2022/09/20 01:35:50;;;;;;;1.92;0.85;;;6.50;99.90;;;;;;5074425;28;20024;-78
2022/09/20 01:38:37;;;;;;;0.80;0.75;;;6.50;99.90;;;;;;5074855;28;20135;-79
2022/09/20 01:41:30;;;;;;;1.23;0.60;;;6.50;99.90;;;;;;5093364;28;20511;-81
2022/09/20 01:44:07;;;;;;;0.52;0.52;;;6.60;99.90;;;;;;5074603;28;20024;-79
2022/09/20 01:46:35;;;;;;;2.00;0.68;;;6.60;99.90;;;;;;5074558;28;20161;-78
2022/09/20 01:49:42;;;;;;;1.13;0.73;;;6.70;99.90;;;;;;5074287;28;20115;-79
2022/09/20 01:52:20;;;;;;;;;;;6.70;99.90;;;;;;5074944;28;20356;-80
2022/09/20 01:54:58;;;;;;;0.45;0.45;;;6.70;99.90;;;;;;5092890;28;19995;-78
2022/09/20 01:57:45;;;;;;;0.82;0.70;;;6.70;99.90;;;;;;5092710;28;20031;-78
2022/09/20 02:00:25;;;;;;;0.70;0.70;;;6.70;99.90;;;;;;5074280;28;20368;-79
2022/09/20 02:03:11;;;;;;;0.98;0.60;;;6.70;99.90;;;;;;5092773;28;20024;-78
2022/09/20 02:05:45;;;;;;;0.38;0.38;;;6.70;99.90;;;;;;5074101;28;20554;-79
2022/09/20 02:08:28;;;;;;;1.05;0.43;;;6.70;99.90;;;;;;5074708;28;20032;-78
2022/09/20 02:11:12;;;;;;;0.88;0.60;;;6.70;99.90;;;;;;5074402;28;20039;-80
2022/09/20 02:13:41;;;;;;;1.33;0.57;;;6.70;99.90;;;;;;5074157;28;20147;-79
2022/09/20 02:16:48;;;;;;;0.77;0.50;;;6.70;99.90;;;;;;5074531;28;20035;-79
2022/09/20 02:19:40;;;;;;;3.92;0.70;;;6.70;99.90;;;;;;5058403;28;20613;-79
2022/09/20 02:22:37;;;;;;;1.13;0.60;;;6.70;99.90;;;;;;5052165;28;20078;-78
2022/09/20 02:25:10;;;;;;;1.20;0.60;;;6.70;99.90;;;;;;5050540;28;20537;-78
2022/09/20 02:28:09;;;;;;;0.50;0.47;;;6.70;99.90;;;;;;5050658;28;20533;-78
2022/09/20 02:30:50;;;;;;;2.05;0.80;;;6.70;99.90;;;;;;5050771;28;20123;-81
2022/09/20 02:33:36;;;;;;;0.98;0.98;;;6.70;99.90;;;;;;5051987;28;20082;-79
2022/09/20 02:36:23;;;;;;;0.73;0.55;;;6.70;99.90;;;;;;5050557;28;20032;-79
2022/09/20 02:39:01;;;;;;;1.83;0.30;;;6.80;99.90;;;;;;5050461;28;20539;-78
2022/09/20 02:41:45;;;;;;;0.45;0.40;;;6.80;99.90;;;;;;5053461;28;20044;-79
2022/09/20 02:44:42;;;;;;;0.63;0.45;;;6.80;99.90;;;;;;5056022;28;20100;-79
2022/09/20 02:47:21;;;;;;;0.85;0.75;;;6.80;99.90;;;;;;5054631;28;20020;-79
2022/09/20 02:50:08;;;;;;;2.10;0.57;;;6.80;99.90;;;;;;5054679;28;20365;-78
2022/09/20 02:52:46;;;;;;;1.27;0.60;;;6.90;99.90;;;;;;5054604;28;20112;-79
2022/09/20 02:55:25;;;;;;;0.30;0.30;;;6.90;99.90;;;;;;5054544;28;20025;-79
2022/09/20 02:58:05;;;;;;;2.70;0.60;;;6.90;99.90;;;;;;5054464;28;20141;-79
2022/09/20 03:00:43;;;;;;;0.45;0.45;;;6.90;99.90;;;;;;5054240;28;20084;-78
2022/09/20 03:03:36;;;;;;;1.83;0.50;;;7.00;99.90;;;;;;5055430;28;20103;-78
2022/09/20 03:06:18;;;;;;;0.55;0.55;;;7.00;99.90;;;;;;5054110;28;20028;-80
2022/09/20 03:09:16;;;;;;;1.13;0.55;;;7.00;99.90;;;;;;5054093;28;20029;-80
2022/09/20 03:12:12;;;;;;;4.60;0.52;;;6.90;99.90;;;;;;5054124;28;20036;-79
2022/09/20 03:14:56;;;;;;;1.23;0.80;;;6.90;99.90;;;;;;5055389;28;20025;-82
2022/09/20 03:18:00;;;;;;;2.67;0.65;;;6.90;99.90;;;;;;5055099;28;20074;-80
2022/09/20 03:20:38;;;;;;;0.93;0.85;;;6.80;99.90;;;;;;5055306;28;20416;-79
2022/09/20 03:23:16;;;;;;;0.73;0.63;;;6.80;99.90;;;;;;5054156;28;20025;-79
2022/09/20 03:25:50;;;;;;;2.13;0.63;;;6.70;99.90;;;;;;5053826;28;20029;-80
2022/09/20 03:28:31;;;;;;;0.55;0.52;;;6.80;99.90;;;;;;5053716;28;20021;-79
2022/09/20 03:31:02;;;;;;;3.92;1.02;;;6.80;99.90;;;;;;5053669;28;20025;-79
2022/09/20 03:33:42;;;;;;;1.85;0.95;;;6.80;99.90;;;;;;5055381;28;20025;-80
2022/09/20 03:36:17;;;;;;;0.55;0.52;;;6.80;99.90;;;;;;5054985;28;20033;-78
2022/09/20 03:39:01;;;;;;;0.60;0.60;;;6.80;99.90;;;;;;5053689;28;20041;-80
2022/09/20 03:41:38;;;;;;;0.93;0.43;;;6.80;99.90;;;;;;5054839;28;20021;-80
2022/09/20 03:44:13;;;;;;;0.88;0.40;;;6.90;99.90;;;;;;5054857;28;20503;-80
2022/09/20 03:46:45;;;;;;;0.40;0.35;;;6.80;99.90;;;;;;5053592;28;20511;-78
2022/09/20 03:49:42;;;;;;;2.75;0.80;;;6.80;99.90;;;;;;5054636;28;20029;-79
2022/09/20 03:52:16;;;;;;;;;;;6.80;99.90;;;;;;5053334;28;20071;-78
2022/09/20 03:54:57;;;;;;;2.72;0.93;;;6.80;99.90;;;;;;5054755;28;20264;-79
2022/09/20 03:57:47;;;;;;;2.05;1.63;;;6.90;99.90;;;;;;5053465;28;20035;-82
2022/09/20 04:00:40;;;;;;;2.88;1.80;;;6.90;99.90;;;;;;5053155;28;20021;-79
2022/09/20 04:03:14;;;;;;;2.15;1.30;;;7.00;99.90;;;;;;5054477;28;20079;-79
2022/09/20 04:05:46;;;;;;;2.45;0.85;;;7.00;99.90;;;;;;5053020;28;20124;-78
2022/09/20 04:08:31;;;;;;;1.35;1.15;;;7.00;99.90;;;;;;5054285;28;20063;-79
2022/09/20 04:11:36;;;;;;;1.58;0.60;;;7.00;99.90;;;;;;5043371;28;20041;-78
2022/09/20 04:14:19;;;;;;;2.03;0.55;;;7.00;99.90;;;;;;5054404;28;20403;-78
2022/09/20 04:16:56;;;;;;;0.70;0.70;;;7.10;99.90;;;;;;5054538;28;20122;-79
2022/09/20 04:19:39;;;;;;;4.43;1.30;;;7.10;99.90;;;;;;5079132;28;20094;-78
2022/09/20 04:22:06;;;;;;;1.98;0.75;;;7.10;99.90;;;;;;5094679;28;20038;-81
2022/09/20 04:24:49;;;;;;;5.93;1.60;;;7.10;99.90;;;;;;5075709;28;20039;-80
2022/09/20 04:27:48;;;;;;;1.20;1.10;;;7.10;99.90;;;;;;5094515;28;20054;-81
2022/09/20 04:30:31;;;;;;;1.58;1.30;;;7.10;99.90;;;;;;5058681;28;20475;-79
2022/09/20 04:32:59;;;;;;;0.82;0.82;;;7.50;99.90;;;;;;5096160;28;20043;-82
2022/09/20 04:38:29;;;;;;;3.00;0.60;;;7.50;99.90;;;;;;5094742;28;20095;-82
2022/09/20 04:41:13;;;;;;;1.17;0.50;;;7.40;99.90;;;;;;5080584;28;20020;-84
2022/09/20 04:44:01;;;;;;;1.35;0.50;;;7.30;99.90;;;;;;5076337;28;20027;-80
2022/09/20 04:46:57;;;;;;;2.63;0.88;;;7.30;99.90;;;;;;5076396;28;20036;-82
2022/09/20 04:50:10;;;;;;;2.22;0.75;;;7.20;99.90;;;;;;5076811;28;20032;-80
2022/09/20 04:53:03;;;;;;;0.93;0.93;;;7.20;99.90;;;;;;5084256;28;20038;-78
2022/09/20 04:55:32;;;;;;;5.28;0.90;;;7.20;99.90;;;;;;5093544;28;20063;-79
2022/09/20 04:58:18;;;;;;;1.42;0.70;;;7.20;99.90;;;;;;5092369;28;20047;-79
2022/09/20 05:01:18;;;;;;;0.60;0.60;;;7.20;99.90;;;;;;5092134;28;20494;-79
2022/09/20 05:04:21;;;;;;;1.77;0.75;;;7.20;99.90;;;;;;5092852;28;20375;-79
2022/09/20 05:07:06;;;;;;;0.73;0.55;;;7.30;99.90;;;;;;5092124;28;20032;-78
2022/09/20 05:09:40;;;;;;;0.68;0.55;;;7.20;99.90;;;;;;5092061;28;20471;-78
2022/09/20 05:12:12;;;;;;;0.98;0.60;;;7.30;99.90;;;;;;5093428;28;20028;-78
2022/09/20 05:14:47;;;;;;;0.82;0.55;;;7.30;99.90;;;;;;5093444;28;20482;-80
2022/09/20 05:17:31;;;;;;;3.00;0.55;;;7.30;99.90;;;;;;5092278;28;20101;-79
2022/09/20 05:20:05;;;;;;;0.88;0.80;;;7.30;99.90;;;;;;5091129;28;20491;-79
2022/09/20 05:22:47;;;;;;;1.20;0.50;;;7.30;99.90;;;;;;5091939;28;20045;-79
2022/09/20 05:25:43;;;;;;;0.98;0.60;;;7.30;99.90;;;;;;5093142;28;20480;-81
2022/09/20 05:28:32;;;;;;;1.50;0.60;;;7.40;99.90;;;;;;5092895;28;20024;-78
2022/09/20 05:31:00;;;;;;;0.65;0.65;;;7.40;99.90;;;;;;5091792;28;20123;-79
2022/09/20 05:33:50;;;;;;;1.55;0.80;;;7.50;99.90;;;;;;5091792;28;20111;-79
2022/09/20 05:36:48;;;;;;;5.15;1.20;;;7.50;99.90;;;;;;5091430;28;20020;-78
2022/09/20 05:39:35;;;;;;;0.70;0.60;;;7.60;99.90;;;;;;5066511;28;20031;-78
2022/09/20 05:42:15;;;;;;;0.60;0.60;;;7.70;99.90;;;;;;5091386;28;20027;-79
2022/09/20 05:44:41;;;;;;;4.05;0.98;;;7.70;99.90;;;;;;5091831;28;20081;-79
2022/09/20 05:47:36;;;;;;;0.60;0.57;;;7.80;99.90;;;;;;5092841;28;20024;-79
2022/09/20 05:50:26;;;;;;;0.80;0.70;;;7.90;99.90;;;;;;5091448;28;20024;-78
2022/09/20 05:53:21;;;;;;;4.45;0.90;;;7.90;99.90;;;;;;5092768;28;20030;-79
2022/09/20 05:56:24;;;;;;;1.88;1.52;;;8.00;99.90;;;;;;5090764;28;20379;-79
2022/09/20 05:58:50;;;;;;;5.25;0.90;;;8.00;99.90;;;;;;5091409;28;20598;-78
2022/09/20 06:01:25;;;;;;;2.00;0.70;;;8.10;99.90;;;;;;5093144;28;20097;-80
2022/09/20 06:04:18;;;;;;;6.78;0.80;;;8.20;99.90;;;;;;5091501;28;20032;-80
2022/09/20 06:07:07;;;;;;;27.05;12.32;;;8.30;99.90;;;;;;5093006;28;20040;-80
2022/09/20 06:10:06;;;;;;;56.90;23.73;;;8.50;99.90;;;;;;5093018;28;20020;-79
2022/09/20 06:12:54;;;;;;;88.40;40.13;;;8.50;99.90;;;;;;5091619;28;20028;-80
2022/09/20 06:15:37;;;;;;;46.85;16.98;;;8.50;99.90;;;;;;5091407;28;20032;-79
2022/09/20 06:18:21;;;;;;;22.88;11.68;;;8.60;99.90;;;;;;5092576;28;20031;-78
2022/09/20 06:21:23;;;;;;;5.47;3.58;;;8.60;99.90;;;;;;5092452;28;20123;-80
2022/09/20 06:23:49;;;;;;;3.38;1.35;;;8.60;99.90;;;;;;5092648;28;20020;-81
2022/09/20 06:26:24;;;;;;;3.45;1.33;;;8.70;99.90;;;;;;5090865;28;20086;-80
2022/09/20 06:28:55;;;;;;;10.45;0.98;;;8.80;99.90;;;;;;5091134;28;20028;-78
2022/09/20 06:31:20;;;;;;;7.95;1.10;;;8.80;99.90;;;;;;5091385;28;20032;-80
2022/09/20 06:33:49;;;;;;;2.90;1.02;;;8.80;99.90;;;;;;5092566;28;20126;-79
2022/09/20 06:42:13;;;;;;;6.18;1.13;;;8.80;99.90;;;;;;5091975;28;20157;-80
2022/09/20 06:44:40;;;;;;;6.40;1.88;;;8.90;99.90;;;;;;5092364;28;20057;-78
2022/09/20 06:47:08;;;;;;;1.35;1.20;;;9.00;99.90;;;;;;5091743;28;20054;-77
2022/09/20 06:49:34;;;;;;;2.55;1.30;;;9.50;99.90;;;;;;5090895;28;20031;-80
2022/09/20 06:52:03;;;;;;;10.10;1.20;;;10.20;99.90;;;;;;5091409;28;20417;-78
2022/09/20 06:54:29;;;;;;;1.77;1.23;;;10.40;99.90;;;;;;5092068;28;20052;-78
2022/09/20 06:56:55;;;;;;;4.65;1.27;;;10.30;99.90;;;;;;5091077;28;20051;-82
2022/09/20 06:59:20;;;;;;;2.20;1.25;;;10.20;99.90;;;;;;5091171;28;20031;-79
2022/09/20 07:01:46;;;;;;;5.65;0.90;;;10.10;99.90;;;;;;5090812;28;20035;-79
2022/09/20 07:04:12;;;;;;;3.75;0.68;;;10.00;99.90;;;;;;5090474;28;20036;-79
2022/09/20 07:06:39;;;;;;;5.18;1.27;;;10.00;99.90;;;;;;5090355;28;20043;-79
2022/09/20 07:09:05;;;;;;;2.60;0.75;;;10.00;99.90;;;;;;5091175;28;20127;-79
2022/09/20 07:11:33;;;;;;;1.10;0.82;;;10.10;99.90;;;;;;5090419;28;20111;-79
2022/09/20 07:14:00;;;;;;;1.38;1.00;;;10.10;99.90;;;;;;5090417;28;20043;-79
2022/09/20 07:16:25;;;;;;;4.70;1.13;;;10.20;99.90;;;;;;5091904;28;20020;-76
2022/09/20 07:18:51;;;;;;;2.22;0.93;;;10.30;99.90;;;;;;5104318;28;20096;-79
2022/09/20 07:21:19;;;;;;;2.95;1.75;;;10.40;99.90;;;;;;5093048;28;20031;-77
2022/09/20 07:23:45;;;;;;;2.03;1.20;;;10.50;99.90;;;;;;5091964;28;20020;-81
2022/09/20 07:26:20;;;;;;;2.53;1.27;;;10.50;99.90;;;;;;5092061;28;20032;-81
2022/09/20 07:28:46;;;;;;;1.13;0.90;;;10.60;99.90;;;;;;5076527;28;20112;-77
2022/09/20 07:31:11;;;;;;;1.75;1.25;;;10.60;99.90;;;;;;5095828;28;20458;-80
2022/09/20 07:33:37;;;;;;;3.40;0.98;;;10.80;99.90;;;;;;5095358;28;20028;-78
2022/09/20 07:36:03;;;;;;;6.57;1.27;;;10.80;99.90;;;;;;5096057;28;20039;-79
2022/09/20 07:38:28;;;;;;;7.65;1.17;;;11.00;99.90;;;;;;5095188;28;20157;-79
2022/09/20 07:40:59;;;;;;;2.65;1.33;;;11.10;99.90;;;;;;5095099;28;20028;-80
2022/09/20 07:43:26;;;;;;;2.03;1.30;;;11.10;99.90;;;;;;5076878;28;20024;-75
2022/09/20 07:45:54;;;;;;;11.57;1.42;;;11.20;99.90;;;;;;5094682;28;20032;-82
2022/09/20 07:48:23;;;;;;;1.25;1.05;;;11.30;99.90;;;;;;5077042;28;20030;-79
2022/09/20 07:50:54;;;;;;;1.50;0.90;;;11.60;99.90;;;;;;5095248;28;20023;-79
2022/09/20 07:53:20;;;;;;;6.53;3.72;;;11.70;99.90;;;;;;5095071;28;20048;-75
2022/09/20 07:56:07;;;;;;;7.35;1.23;;;11.90;99.90;;;;;;5094787;28;20604;-78
2022/09/20 07:58:34;;;;;;;7.57;3.35;;;12.00;99.90;;;;;;5094951;28;20039;-78
2022/09/20 08:01:12;;;;;;;3.40;1.55;;;12.10;99.90;;;;;;5094762;28;20332;-78
2022/09/20 08:03:38;;;;;;;3.05;1.58;;;12.20;99.90;;;;;;5094887;28;20024;-76
2022/09/20 08:06:09;;;;;;;0.88;0.75;;;12.30;99.90;;;;;;5094522;28;20494;-79
2022/09/20 08:08:36;;;;;;;0.65;0.40;;;12.40;99.90;;;;;;5094581;28;20020;-78
2022/09/20 08:11:07;;;;;;;1.27;0.60;;;12.40;99.90;;;;;;5076870;28;20012;-79
2022/09/20 08:13:49;;;;;;;0.85;0.50;;;12.60;99.90;;;;;;5095047;28;20027;-79
2022/09/20 08:16:15;;;;;;;6.35;0.77;;;12.70;99.90;;;;;;5094979;28;20016;-80
2022/09/20 08:18:50;;;;;;;0.38;0.30;;;12.80;99.90;;;;;;5094314;28;20044;-79
2022/09/20 08:21:16;;;;;;;0.50;0.40;;;12.90;99.90;;;;;;5094827;28;20095;-80
2022/09/20 08:23:44;;;;;;;3.30;0.30;;;13.00;99.20;;;;;;5095145;28;20491;-83
2022/09/20 08:26:12;;;;;;;0.40;0.40;;;13.00;97.40;;;;;;5094978;28;20039;-79
2022/09/20 08:28:40;;;;;;;2.05;0.73;;;13.10;96.90;;;;;;5093331;28;20028;-78
2022/09/20 08:31:11;;;;;;;6.53;3.40;;;13.10;96.00;;;;;;5075162;28;20039;-79
2022/09/20 08:33:38;;;;;;;4.28;2.70;;;13.00;95.50;;;;;;5075189;28;20031;-76
2022/09/20 08:36:05;;;;;;;1.35;0.98;;;13.00;96.10;;;;;;5094467;28;20043;-78
2022/09/20 08:38:33;;;;;;;1.20;0.60;;;12.90;96.20;;;;;;5095664;28;20020;-78
2022/09/20 08:41:06;;;;;;;0.93;0.22;;;12.90;95.50;;;;;;5094281;28;20068;-80
2022/09/20 08:43:39;;;;;;;0.10;0.10;;;12.90;95.20;;;;;;5093129;28;20027;-77
2022/09/20 08:46:12;;;;;;;0.68;0.30;;;13.10;94.90;;;;;;5075259;28;20032;-81
2022/09/20 08:48:38;;;;;;;1.33;0.05;;;13.10;93.90;;;;;;5075542;28;20101;-78
2022/09/20 08:51:07;;;;;;;1.23;0.10;;;13.30;93.40;;;;;;5075842;28;20490;-78
2022/09/20 08:53:33;;;;;;;2.13;0.20;;;;;;;;;;5075265;28;20426;-74
2022/09/20 08:56:00;;;;;;;0.10;0.10;;;13.60;91.30;;;;;;5093683;28;20522;-77
2022/09/20 08:58:26;;;;;;;0.20;0.10;;;13.90;90.60;;;;;;5075228;28;20030;-76
2022/09/20 09:00:55;;;;;;;2.65;0.25;;;14.20;88.60;;;;;;5093785;28;20095;-74
2022/09/20 09:03:20;;;;;;;0.10;0.10;;;14.40;90.00;;;;;;5093527;28;20047;-74
2022/09/20 09:05:47;;;;;;;0.70;0.20;;;14.60;89.60;;;;;;5093517;28;20071;-74
2022/09/20 09:08:16;;;;;;;0.10;0.05;;;14.70;84.30;;;;;;5094628;28;20137;-84
2022/09/20 09:10:52;;;;;;;0.00;0.00;;;14.80;82.20;;;;;;5075859;28;20475;-75
2022/09/20 09:13:35;;;;;;;0.25;0.10;;;15.00;80.80;;;;;;5093410;28;20426;-76
2022/09/20 09:16:08;;;;;;;0.13;0.10;;;15.10;79.40;;;;;;5093402;28;20031;-78
2022/09/20 09:18:40;;;;;;;0.03;0.03;;;15.20;80.20;;;;;;5093115;28;20483;-78
2022/09/20 09:21:09;;;;;;;0.10;0.10;;;15.30;77.60;;;;;;5093425;28;20077;-78
2022/09/20 09:23:53;;;;;;;0.30;0.10;;;15.40;76.20;;;;;;5093043;28;20028;-78
2022/09/20 09:26:23;;;;;;;0.10;0.10;;;15.50;76.60;;;;;;5075048;28;20395;-78
2022/09/20 09:29:16;;;;;;;0.30;0.13;;;15.50;77.60;;;;;;5093188;28;20479;-77
2022/09/20 09:31:44;;;;;;;0.10;0.10;;;15.50;76.60;;;;;;5092915;28;20390;-75
2022/09/20 09:34:26;;;;;;;1.55;1.05;;;15.60;77.20;;;;;;5074834;28;20402;-78
2022/09/20 09:36:54;;;;;;;0.20;0.10;;;15.70;79.30;;;;;;5074791;28;20021;-77
2022/09/20 09:39:39;;;;;;;0.75;0.20;;;15.80;76.70;;;;;;5093162;28;20424;-77
2022/09/20 09:42:25;;;;;;;0.77;0.50;;;15.80;75.00;;;;;;5074956;28;20460;-78
2022/09/20 09:44:50;;;;;;;1.02;0.10;;;15.50;74.80;;;;;;5074544;28;20054;-79
2022/09/20 09:47:28;;;;;;;0.63;0.05;;;15.40;77.10;;;;;;5093054;28;20459;-79
2022/09/20 09:49:58;;;;;;;0.08;0.08;;;15.30;76.20;;;;;;5092351;28;20019;-78
2022/09/20 09:52:31;;;;;;;0.10;0.10;;;15.40;75.40;;;;;;5092841;28;20020;-77
2022/09/20 09:54:58;;;;;;;0.73;0.05;;;15.40;75.70;;;;;;5074469;28;20012;-77
2022/09/20 09:57:39;;;;;;;0.52;0.00;;;15.40;73.80;;;;;;5092590;28;20111;-77
2022/09/20 10:00:16;;;;;;;0.75;0.05;;;15.50;73.40;;;;;;5074395;28;20025;-79
2022/09/20 10:03:07;;;;;;;0.10;0.03;;;15.70;71.20;;;;;;5092380;28;20028;-79
2022/09/20 10:05:46;;;;;;;2.22;0.32;;;15.80;68.40;;;;;;5091811;28;20085;-77
2022/09/20 10:08:34;;;;;;;0.10;0.10;;;15.90;73.10;;;;;;5073946;28;20024;-78
2022/09/20 10:11:20;;;;;;;0.63;0.20;;;15.90;70.90;;;;;;5074244;28;20031;-79
2022/09/20 10:14:02;;;;;;;0.00;0.00;;;15.90;75.10;;;;;;5092816;28;20485;-76
2022/09/20 10:16:56;;;;;;;0.32;0.10;;;15.90;73.00;;;;;;5092814;28;20013;-78
2022/09/20 10:19:33;;;;;;;0.15;0.00;;;15.80;74.60;;;;;;5092271;28;20047;-78
2022/09/20 10:22:18;;;;;;;1.60;0.13;;;15.60;76.10;;;;;;5092462;28;20028;-79
2022/09/20 10:24:54;;;;;;;0.13;0.10;;;15.60;76.70;;;;;;5073902;28;20085;-76
2022/09/20 10:27:31;;;;;;;;;;;15.60;75.40;;;;;;5074716;28;20525;-78
2022/09/20 10:30:08;;;;;;;0.60;0.28;;;15.60;74.30;;;;;;5074084;28;19908;-77
2022/09/20 10:32:52;;;;;;;0.10;0.10;;;15.70;73.30;;;;;;5074092;28;20074;-79
2022/09/20 10:35:51;;;;;;;1.45;0.20;;;15.60;73.50;;;;;;5092409;28;20023;-79
2022/09/20 10:38:20;;;;;;;0.15;0.00;;;15.60;74.60;;;;;;5092182;28;20020;-77
2022/09/20 10:44:05;;;;;;;1.17;0.03;;;15.50;75.30;;;;;;5092421;28;20035;-78
2022/09/20 10:46:57;;;;;;;0.08;0.08;;;15.50;73.30;;;;;;5073982;28;20040;-77
2022/09/20 10:49:39;;;;;;;2.40;0.20;;;15.50;71.60;;;;;;5074100;28;20028;-77
2022/09/20 10:52:20;;;;;;;0.17;0.10;;;15.70;73.10;;;;;;5074044;28;20052;-77
2022/09/20 10:55:19;;;;;;;0.03;0.03;;;15.90;71.00;;;;;;5092282;28;20034;-77
2022/09/20 10:57:57;;;;;;;0.43;0.10;;;16.10;69.20;;;;;;5092086;28;20043;-78
2022/09/20 11:00:30;;;;;;;0.00;0.00;;;16.40;67.80;;;;;;5073835;28;20367;-77
2022/09/20 11:03:20;;;;;;;0.25;0.00;;;16.60;67.70;;;;;;5093890;28;20047;-74
2022/09/20 11:05:52;;;;;;;4.18;0.10;;;16.80;67.40;;;;;;5096082;28;20085;-78
2022/09/20 11:08:24;;;;;;;0.03;0.03;;;17.10;69.10;;;;;;5077628;28;20417;-76
2022/09/20 11:11:01;;;;;;;0.10;0.10;;;17.30;66.90;;;;;;5078051;28;20059;-78
2022/09/20 11:14:05;;;;;;;0.10;0.10;;;17.40;65.70;;;;;;5077687;28;20024;-77
2022/09/20 11:16:55;;;;;;;0.00;0.00;;;17.40;64.30;;;;;;5083719;28;20067;-75
2022/09/20 11:19:27;;;;;;;0.20;0.17;;;17.50;63.80;;;;;;5095062;28;20040;-77
2022/09/20 11:22:11;;;;;;;3.00;0.20;;;17.50;63.10;;;;;;5095254;28;20028;-76
2022/09/20 11:25:16;;;;;;;1.75;0.00;;;17.50;63.50;;;;;;5095249;28;20024;-76
2022/09/20 11:28:02;;;;;;;1.67;0.35;;;17.30;63.70;;;;;;5064492;28;20047;-76
2022/09/20 11:30:30;;;;;;;0.35;0.05;;;17.00;64.20;;;;;;5094828;28;20031;-78
2022/09/20 11:33:06;;;;;;;0.00;0.00;;;16.80;64.20;;;;;;5094041;28;20028;-77
2022/09/20 11:35:48;;;;;;;1.50;0.30;;;16.60;62.80;;;;;;5095121;28;20016;-77
2022/09/20 11:38:39;;;;;;;3.63;0.10;;;16.50;64.40;;;;;;5094850;28;20032;-76
2022/09/20 11:41:14;;;;;;;3.03;1.55;;;16.30;63.80;;;;;;5095001;28;20471;-78
2022/09/20 11:43:44;;;;;;;0.00;0.00;;;16.20;65.00;;;;;;5093840;28;20028;-77
2022/09/20 11:46:23;;;;;;;5.57;0.30;;;16.00;63.60;;;;;;5094787;28;20024;-79
2022/09/20 11:49:00;;;;;;;1.90;0.20;;;15.80;64.60;;;;;;5093449;28;20048;-79
2022/09/20 11:52:03;;;;;;;1.00;0.65;;;15.60;65.90;;;;;;5094991;28;20047;-79
2022/09/20 11:54:53;;;;;;;3.00;0.25;;;15.40;66.50;;;;;;5095166;28;20107;-79
2022/09/20 11:57:20;;;;;;;0.20;0.10;;;15.40;66.50;;;;;;5094741;28;20107;-80
2022/09/20 11:59:55;;;;;;;0.25;0.10;;;15.20;66.70;;;;;;5093624;28;20016;-79
2022/09/20 12:02:52;;;;;;;0.10;0.10;;;15.00;66.90;;;;;;5093629;28;20031;-79
2022/09/20 12:05:32;;;;;;;0.35;0.35;;;14.90;67.60;;;;;;5094303;28;20039;-79
2022/09/20 12:08:00;;;;;;;0.05;0.05;;;14.80;68.60;;;;;;5093184;28;20425;-78
2022/09/20 12:10:34;;;;;;;0.70;0.40;;;14.70;69.30;;;;;;5094736;28;20024;-78
2022/09/20 12:13:06;;;;;;;2.25;0.40;;;14.70;69.50;;;;;;5092927;28;20058;-80
2022/09/20 12:15:40;;;;;;;1.30;0.38;;;14.80;70.00;;;;;;5094903;28;20020;-78
2022/09/20 12:18:07;;;;;;;0.30;0.30;;;14.90;70.30;;;;;;5094553;28;20380;-79
2022/09/20 12:20:37;;;;;;;0.10;0.10;;;15.10;71.00;;;;;;5093260;28;20047;-79
2022/09/20 12:23:41;;;;;;;17.08;3.30;;;15.30;69.80;;;;;;5093013;28;20027;-78
2022/09/20 12:26:20;;;;;;;7.82;1.10;;;15.50;68.50;;;;;;5094750;28;20056;-78
2022/09/20 12:28:53;;;;;;;0.10;0.05;;;15.80;68.60;;;;;;5094281;28;20016;-79
2022/09/20 12:31:21;;;;;;;0.10;0.10;;;16.00;63.90;;;;;;5093890;28;20028;-78
2022/09/20 12:34:02;;;;;;;0.10;0.10;;;16.10;63.00;;;;;;5092380;28;20024;-78
2022/09/20 12:36:53;;;;;;;3.28;0.70;;;16.40;62.80;;;;;;5092811;28;20024;-78
2022/09/20 12:39:34;;;;;;;0.93;0.30;;;16.50;62.60;;;;;;5065992;28;20107;-80
2022/09/20 12:42:00;;;;;;;2.25;0.73;;;16.50;62.10;;;;;;5093795;28;20039;-78
2022/09/20 12:44:35;;;;;;;4.15;0.22;;;16.40;61.30;;;;;;5093956;28;20028;-78
2022/09/20 12:47:07;;;;;;;0.28;0.10;;;16.20;62.90;;;;;;5094036;28;20039;-79
2022/09/20 12:52:49;;;;;;;0.15;0.10;;;16.10;64.40;;;;;;5093545;28;20038;-80
2022/09/20 12:55:45;;;;;;;3.90;0.40;;;16.10;65.10;;;;;;5093825;28;20016;-77
2022/09/20 13:00:41;;;;;;;0.08;0.08;;;16.60;64.70;;;;;;5093530;28;20028;-79
2022/09/20 13:03:11;;;;;;;0.32;0.20;;;16.80;74.30;;;;;;5092166;28;20024;-77
2022/09/20 13:05:40;;;;;;;1.27;0.28;;;17.00;63.40;;;;;;5093936;28;20031;-77
2022/09/20 13:08:21;;;;;;;2.58;1.10;;;17.00;63.30;;;;;;5093321;28;20020;-77
2022/09/20 13:10:56;;;;;;;6.85;0.38;;;16.70;63.00;;;;;;5091701;28;20035;-77
2022/09/20 13:13:30;;;;;;;2.83;1.00;;;16.40;64.00;;;;;;5092319;28;20046;-77
2022/09/20 13:15:57;;;;;;;3.33;0.40;;;16.20;66.00;;;;;;5091760;28;20050;-78
2022/09/20 13:18:26;;;;;;;1.65;0.20;;;16.20;75.60;;;;;;5092611;28;20028;-77
2022/09/20 13:20:54;;;;;;;4.32;0.20;;;16.00;66.90;;;;;;5091547;28;20028;-76
2022/09/20 13:23:26;;;;;;;1.20;0.20;;;16.00;67.60;;;;;;5091505;28;20016;-76
2022/09/20 13:25:56;;;;;;;0.00;0.00;;;16.00;67.90;;;;;;5091958;28;20036;-77
2022/09/20 13:28:37;;;;;;;4.35;0.28;;;15.90;67.20;;;;;;5092524;28;20024;-78
2022/09/20 13:31:29;;;;;;;1.15;0.57;;;15.90;76.90;;;;;;5091423;28;20024;-78
2022/09/20 13:34:17;;;;;;;0.38;0.10;;;15.80;68.10;;;;;;5092419;28;20024;-77
2022/09/20 13:36:44;;;;;;;0.13;0.10;;;15.80;67.90;;;;;;5092676;28;20020;-77
2022/09/20 13:39:34;;;;;;;0.40;0.13;;;15.80;68.40;;;;;;5092802;28;20356;-77
2022/09/20 13:42:15;;;;;;;21.83;1.83;;;15.80;68.90;;;;;;5092727;28;20502;-76
2022/09/20 13:44:42;;;;;;;0.47;0.15;;;15.80;68.10;;;;;;5090939;28;20027;-77
2022/09/20 13:47:42;;;;;;;0.47;0.13;;;15.80;69.70;;;;;;5092391;28;20039;-77
2022/09/20 13:50:32;;;;;;;1.42;0.60;;;15.90;70.50;;;;;;5047890;28;20483;-76
2022/09/20 13:53:00;;;;;;;0.70;0.10;;;15.90;67.90;;;;;;5091115;28;20031;-78
2022/09/20 13:55:32;;;;;;;2.70;0.20;;;15.90;68.20;;;;;;5092618;28;20016;-79
2022/09/20 13:58:18;;;;;;;19.33;3.28;;;15.80;68.70;;;;;;5091280;28;20053;-76
2022/09/20 14:00:48;;;;;;;10.20;0.60;;;15.80;69.20;;;;;;5092625;28;20028;-77
2022/09/20 14:03:16;;;;;;;0.15;0.15;;;16.10;79.50;;;;;;5091437;28;20055;-78